Time;durP1;ratioP1;P1;durP2;ratioP2;P2;SDS_P1;SDS_P2;PMS_P1;PMS_P2;Temp;Humidity;BMP_temperature;BMP_pressure;BME280_temperature;BME280_humidity;BME280_pressure;Samples;Min_cycle;Max_cycle;Signal;HPM_P1;HPM_P2
2022/09/16 00:01:52;;;;;;;3.13;1.50;;;11.80;1.00;;;;;;4935710;29;20488;-72
2022/09/16 00:04:20;;;;;;;3.20;1.80;;;11.80;1.00;;;;;;4931539;29;20472;-73
2022/09/16 00:06:49;;;;;;;2.30;1.30;;;11.80;1.00;;;;;;4934840;29;20852;-74
2022/09/16 00:09:19;;;;;;;5.50;1.37;;;11.70;1.00;;;;;;4930815;29;20443;-72
2022/09/16 00:11:48;;;;;;;1.60;0.93;;;11.70;1.00;;;;;;4931855;29;20419;-73
2022/09/16 00:14:16;;;;;;;1.63;1.20;;;11.70;1.00;;;;;;4931518;29;20515;-74
2022/09/16 00:16:45;;;;;;;2.60;0.87;;;11.60;1.00;;;;;;4938594;29;20422;-74
2022/09/16 00:19:14;;;;;;;4.90;1.10;;;11.60;1.00;;;;;;4932600;29;20468;-73
2022/09/16 00:21:42;;;;;;;2.73;0.93;;;11.70;1.00;;;;;;4941183;29;20881;-74
2022/09/16 00:24:12;;;;;;;4.20;1.30;;;11.60;1.00;;;;;;4940306;29;20466;-74
2022/09/16 00:26:43;;;;;;;1.80;0.90;;;11.60;1.00;;;;;;4946434;29;21065;-73
2022/09/16 00:29:12;;;;;;;2.80;1.00;;;11.50;1.00;;;;;;4941258;29;20448;-73
2022/09/16 00:31:41;;;;;;;5.63;1.20;;;11.50;1.00;;;;;;4940141;29;20881;-74
2022/09/16 00:34:10;;;;;;;4.83;1.37;;;11.50;1.00;;;;;;4936153;29;20503;-75
2022/09/16 00:36:39;;;;;;;1.83;1.33;;;11.40;1.00;;;;;;4936415;29;20957;-75
2022/09/16 00:39:07;;;;;;;1.30;0.90;;;11.40;1.00;;;;;;4942483;29;20474;-76
2022/09/16 00:41:36;;;;;;;1.67;1.20;;;11.40;1.00;;;;;;4938344;29;20850;-74
2022/09/16 00:44:27;;;;;;;3.30;0.90;;;11.30;1.00;;;;;;4936896;29;20794;-72
2022/09/16 00:46:56;;;;;;;3.00;1.40;;;11.30;1.00;;;;;;4944322;28;20466;-74
2022/09/16 00:49:29;;;;;;;1.50;0.90;;;11.20;1.00;;;;;;4932348;29;20423;-75
2022/09/16 00:52:02;;;;;;;1.60;1.03;;;11.20;1.00;;;;;;4939312;29;20468;-75
2022/09/16 00:54:32;;;;;;;2.97;1.00;;;11.10;1.00;;;;;;4934684;29;20555;-73
2022/09/16 00:57:03;;;;;;;3.17;1.27;;;11.20;1.00;;;;;;4931545;28;20468;-73
2022/09/16 00:59:37;;;;;;;4.77;1.40;;;11.10;55.70;;;;;;4937036;29;21033;-74
2022/09/16 01:02:09;;;;;;;1.47;1.00;;;11.20;25.00;;;;;;4940915;29;20934;-74
2022/09/16 01:04:45;;;;;;;6.83;1.33;;;11.10;31.20;;;;;;4933208;29;20471;-73
2022/09/16 01:07:15;;;;;;;2.03;1.40;;;11.10;89.50;;;;;;4934641;29;20475;-74
2022/09/16 01:09:44;;;;;;;5.30;1.20;;;11.10;99.90;;;;;;4938041;29;20474;-74
2022/09/16 01:12:12;;;;;;;2.70;1.03;;;11.00;99.90;;;;;;4938280;29;20882;-73
2022/09/16 01:14:55;;;;;;;1.20;0.80;;;11.00;99.90;;;;;;4935600;29;20471;-73
2022/09/16 01:17:51;;;;;;;2.97;1.30;;;11.00;99.90;;;;;;4939626;29;20930;-73
2022/09/16 01:20:50;;;;;;;11.20;1.30;;;11.00;99.90;;;;;;4931969;29;20507;-73
2022/09/16 01:24:02;;;;;;;5.43;1.40;;;11.10;99.90;;;;;;4930550;29;20467;-75
2022/09/16 01:27:04;;;;;;;1.53;0.80;;;11.00;1.00;;;;;;4933902;29;20520;-74
2022/09/16 01:29:51;;;;;;;3.60;1.47;;;11.00;1.00;;;;;;4937076;29;20448;-74
2022/09/16 01:32:28;;;;;;;4.20;1.17;;;10.90;1.00;;;;;;4937022;29;20447;-73
2022/09/16 01:35:04;;;;;;;6.43;1.40;;;10.90;99.90;;;;;;4939511;29;20479;-73
2022/09/16 01:37:43;;;;;;;4.60;1.53;;;10.90;99.90;;;;;;4933688;29;20448;-74
2022/09/16 01:40:24;;;;;;;7.00;1.00;;;10.90;99.90;;;;;;4936264;29;20882;-72
2022/09/16 01:43:02;;;;;;;5.27;2.00;;;10.80;99.90;;;;;;4944622;28;20539;-75
2022/09/16 01:45:39;;;;;;;6.60;1.73;;;10.80;99.90;;;;;;4934118;29;20507;-72
2022/09/16 01:48:18;;;;;;;4.87;1.70;;;10.90;1.00;;;;;;4947938;28;20812;-74
2022/09/16 01:50:50;;;;;;;3.00;1.23;;;10.90;99.90;;;;;;4927945;29;20451;-74
2022/09/16 01:53:25;;;;;;;2.70;1.40;;;10.80;1.00;;;;;;4937988;29;20448;-74
2022/09/16 01:55:59;;;;;;;5.57;1.63;;;10.80;99.90;;;;;;4934008;29;20470;-74
2022/09/16 01:58:35;;;;;;;2.13;1.50;;;10.80;99.90;;;;;;4934081;29;20753;-73
2022/09/16 02:01:09;;;;;;;2.30;1.17;;;10.80;1.00;;;;;;4934333;29;21062;-73
2022/09/16 02:03:49;;;;;;;5.43;1.50;;;10.80;1.00;;;;;;4936474;29;20448;-73
2022/09/16 02:06:21;;;;;;;1.90;1.37;;;10.70;99.90;;;;;;4933256;29;20451;-74
2022/09/16 02:08:55;;;;;;;1.67;1.20;;;10.70;1.00;;;;;;4935395;29;20510;-73
2022/09/16 02:11:25;;;;;;;3.20;1.60;;;10.70;99.70;;;;;;4930074;29;20422;-75
2022/09/16 02:14:00;;;;;;;4.60;1.47;;;10.70;99.90;;;;;;4933915;29;20459;-74
2022/09/16 02:16:35;;;;;;;1.97;1.57;;;10.70;99.90;;;;;;4936348;29;20415;-73
2022/09/16 02:19:10;;;;;;;1.97;1.33;;;10.70;1.00;;;;;;4936020;29;20498;-73
2022/09/16 02:21:41;;;;;;;4.50;1.60;;;10.70;99.90;;;;;;4938157;29;20422;-73
2022/09/16 02:24:18;;;;;;;3.77;1.93;;;10.70;99.90;;;;;;4940367;29;21001;-73
2022/09/16 02:26:52;;;;;;;6.87;1.77;;;10.70;99.90;;;;;;4929191;29;20463;-74
2022/09/16 02:29:25;;;;;;;6.87;1.63;;;10.70;99.90;;;;;;4934997;28;20688;-74
2022/09/16 02:32:00;;;;;;;2.77;1.90;;;10.70;99.90;;;;;;4928465;29;20549;-74
2022/09/16 02:34:33;;;;;;;3.53;1.90;;;10.60;99.90;;;;;;4933385;29;20452;-73
2022/09/16 02:37:08;;;;;;;6.00;1.87;;;10.70;99.90;;;;;;4931571;29;20506;-73
2022/09/16 02:39:43;;;;;;;1.77;1.30;;;10.60;99.90;;;;;;4933714;29;20474;-73
2022/09/16 02:42:12;;;;;;;7.37;2.33;;;10.60;99.90;;;;;;4937353;28;20422;-73
2022/09/16 02:44:41;;;;;;;2.20;1.43;;;10.50;99.90;;;;;;4934972;28;20555;-73
2022/09/16 02:47:16;;;;;;;4.53;2.23;;;10.60;99.90;;;;;;4934183;29;20465;-74
2022/09/16 02:49:54;;;;;;;5.43;1.57;;;10.50;99.90;;;;;;4934641;29;20458;-74
2022/09/16 02:52:33;;;;;;;2.40;2.07;;;10.50;99.90;;;;;;4928494;29;20483;-73
2022/09/16 02:55:07;;;;;;;3.20;2.03;;;10.50;99.90;;;;;;4931329;29;20994;-74
2022/09/16 02:57:35;;;;;;;3.97;1.97;;;10.50;99.90;;;;;;4934747;29;20441;-74
2022/09/16 03:00:05;;;;;;;2.00;1.70;;;10.60;99.90;;;;;;4929690;29;20532;-73
2022/09/16 03:02:35;;;;;;;4.80;2.00;;;10.50;99.90;;;;;;4932969;29;20523;-73
2022/09/16 03:05:06;;;;;;;2.77;1.30;;;10.60;99.90;;;;;;4934010;29;20431;-73
2022/09/16 03:07:34;;;;;;;6.83;2.37;;;10.50;99.90;;;;;;4930529;29;20471;-73
2022/09/16 03:10:04;;;;;;;3.40;1.80;;;10.50;99.90;;;;;;4929687;29;20522;-74
2022/09/16 03:12:50;;;;;;;3.80;2.33;;;10.50;99.90;;;;;;4932884;29;20528;-74
2022/09/16 03:15:36;;;;;;;6.77;2.40;;;10.50;99.90;;;;;;4932923;29;20455;-72
2022/09/16 03:18:32;;;;;;;3.03;2.30;;;10.50;99.90;;;;;;4933796;29;20464;-71
2022/09/16 03:21:13;;;;;;;4.30;2.60;;;10.50;99.90;;;;;;4940028;29;20543;-72
2022/09/16 03:23:49;;;;;;;3.77;2.20;;;10.50;99.90;;;;;;4939312;29;20641;-73
2022/09/16 03:26:26;;;;;;;3.93;2.47;;;10.50;99.90;;;;;;4944804;29;20445;-71
2022/09/16 03:29:07;;;;;;;2.17;1.57;;;10.50;99.90;;;;;;4942573;29;20456;-74
2022/09/16 03:31:42;;;;;;;9.03;2.50;;;10.50;99.90;;;;;;4938714;29;20415;-72
2022/09/16 03:34:17;;;;;;;2.60;1.60;;;10.50;99.90;;;;;;4936305;29;20813;-72
2022/09/16 03:36:52;;;;;;;3.20;2.00;;;10.50;99.90;;;;;;4933988;29;20893;-73
2022/09/16 03:39:22;;;;;;;3.30;1.83;;;10.50;99.90;;;;;;4925760;29;20412;-74
2022/09/16 03:41:52;;;;;;;2.30;1.77;;;10.50;99.90;;;;;;4924277;29;20480;-72
2022/09/16 03:44:20;;;;;;;3.20;2.03;;;10.40;99.90;;;;;;4929524;29;20474;-73
2022/09/16 03:46:49;;;;;;;4.20;1.63;;;10.50;99.90;;;;;;4930422;29;20458;-73
2022/09/16 03:49:18;;;;;;;5.47;3.10;;;10.50;99.90;;;;;;4923353;29;20424;-72
2022/09/16 03:51:49;;;;;;;5.00;2.30;;;10.50;99.90;;;;;;4931865;29;20438;-73
2022/09/16 03:54:17;;;;;;;3.87;2.77;;;10.50;99.90;;;;;;4929886;29;20423;-73
2022/09/16 03:56:46;;;;;;;7.93;3.13;;;10.60;99.90;;;;;;4937082;29;20507;-74
2022/09/16 03:59:15;;;;;;;3.40;2.33;;;10.60;99.90;;;;;;4930232;29;20479;-73
2022/09/16 04:01:44;;;;;;;4.10;3.50;;;10.70;99.90;;;;;;4946955;28;20537;-72
2022/09/16 04:04:13;;;;;;;3.20;2.30;;;10.70;99.90;;;;;;4941733;29;20505;-73
2022/09/16 04:06:41;;;;;;;3.57;2.50;;;10.70;99.90;;;;;;4945474;28;20426;-73
2022/09/16 04:09:12;;;;;;;4.83;2.27;;;10.70;99.90;;;;;;4935641;28;20423;-73
2022/09/16 04:11:41;;;;;;;10.97;2.97;;;10.70;99.90;;;;;;4939078;28;20748;-71
2022/09/16 04:14:10;;;;;;;4.83;2.90;;;10.60;99.90;;;;;;4934231;29;20499;-72
2022/09/16 04:16:38;;;;;;;5.00;2.97;;;10.50;99.90;;;;;;4934593;29;20499;-72
2022/09/16 04:19:14;;;;;;;9.97;2.77;;;10.50;99.90;;;;;;4940434;28;20490;-73
2022/09/16 04:21:42;;;;;;;5.60;2.97;;;10.50;99.90;;;;;;4933028;29;20446;-73
2022/09/16 04:24:13;;;;;;;2.73;1.90;;;10.40;99.90;;;;;;4940958;29;20471;-71
2022/09/16 04:26:42;;;;;;;8.50;3.37;;;10.40;99.90;;;;;;4932894;29;20456;-71
2022/09/16 04:32:03;;;;;;;3.97;2.83;;;10.40;99.90;;;;;;4932207;29;20918;-71
2022/09/16 04:34:32;;;;;;;7.37;1.70;;;10.30;99.90;;;;;;4941302;29;21084;-72
2022/09/16 04:37:01;;;;;;;7.90;2.90;;;10.30;99.90;;;;;;4935407;29;20504;-72
2022/09/16 04:39:31;;;;;;;4.97;2.37;;;10.20;99.90;;;;;;4938706;29;20477;-72
2022/09/16 04:41:59;;;;;;;6.63;3.30;;;10.20;99.90;;;;;;4939275;29;21025;-73
2022/09/16 04:44:29;;;;;;;5.63;3.20;;;10.30;99.90;;;;;;4937975;29;20815;-72
2022/09/16 04:46:57;;;;;;;3.23;2.13;;;10.30;99.90;;;;;;4935002;29;20449;-73
2022/09/16 04:49:26;;;;;;;4.47;2.77;;;10.30;99.90;;;;;;4930655;29;20531;-72
2022/09/16 04:51:54;;;;;;;4.10;2.57;;;10.20;99.90;;;;;;4932640;29;20446;-72
2022/09/16 04:54:23;;;;;;;5.93;2.97;;;10.30;99.90;;;;;;4937149;29;20521;-74
2022/09/16 04:57:18;;;;;;;3.03;2.23;;;10.30;99.90;;;;;;4934160;29;20428;-73
2022/09/16 04:59:46;;;;;;;4.27;3.20;;;10.40;99.90;;;;;;4933329;29;21001;-72
2022/09/16 05:02:15;;;;;;;8.00;2.80;;;10.40;99.90;;;;;;4939250;29;20818;-74
2022/09/16 05:04:44;;;;;;;2.77;1.90;;;10.50;99.90;;;;;;4931602;29;20467;-73
2022/09/16 05:07:12;;;;;;;3.30;2.17;;;10.50;99.90;;;;;;4938974;29;20438;-75
2022/09/16 05:09:41;;;;;;;6.80;3.33;;;10.50;99.90;;;;;;4933709;29;20423;-73
2022/09/16 05:12:09;;;;;;;6.80;2.20;;;10.50;99.90;;;;;;4937921;29;20407;-72
2022/09/16 05:14:39;;;;;;;4.03;2.20;;;10.50;99.90;;;;;;4939061;29;20456;-73
2022/09/16 05:17:08;;;;;;;2.63;1.80;;;10.50;99.90;;;;;;4938032;28;20450;-72
2022/09/16 05:19:36;;;;;;;4.63;2.57;;;10.60;99.90;;;;;;4938021;29;20419;-72
2022/09/16 05:22:06;;;;;;;2.20;2.00;;;10.60;99.90;;;;;;4936917;29;20480;-73
2022/09/16 05:24:35;;;;;;;4.17;2.40;;;10.60;99.90;;;;;;4937486;29;20452;-71
2022/09/16 05:27:04;;;;;;;4.03;2.20;;;10.70;99.90;;;;;;4931588;29;20802;-72
2022/09/16 05:29:33;;;;;;;3.47;2.20;;;10.70;99.90;;;;;;4935431;29;20474;-73
2022/09/16 05:32:03;;;;;;;4.83;3.00;;;10.80;99.90;;;;;;4936128;29;20523;-72
2022/09/16 05:34:32;;;;;;;6.63;3.20;;;11.00;99.90;;;;;;4941853;29;20443;-74
2022/09/16 05:37:00;;;;;;;7.60;4.53;;;11.00;99.90;;;;;;4956486;29;20864;-75
2022/09/16 05:39:29;;;;;;;4.67;1.63;;;11.10;99.90;;;;;;4935729;29;20465;-73
2022/09/16 05:41:59;;;;;;;2.37;2.07;;;11.20;99.90;;;;;;4931555;29;20831;-73
2022/09/16 05:44:29;;;;;;;5.33;2.83;;;11.40;99.90;;;;;;4930120;29;20432;-71
2022/09/16 05:46:57;;;;;;;4.10;2.27;;;11.50;99.90;;;;;;4934834;29;20407;-74
2022/09/16 05:49:27;;;;;;;3.27;2.97;;;11.50;99.90;;;;;;4930561;29;20937;-72
2022/09/16 05:51:56;;;;;;;7.40;2.90;;;11.60;99.90;;;;;;4935057;29;20423;-73
2022/09/16 05:54:25;;;;;;;7.40;2.23;;;11.70;99.90;;;;;;4937630;29;20743;-72
2022/09/16 05:56:53;;;;;;;2.10;1.83;;;11.70;99.90;;;;;;4929442;29;20505;-73
2022/09/16 05:59:22;;;;;;;5.60;2.70;;;11.70;99.90;;;;;;4935545;29;20854;-73
2022/09/16 06:01:51;;;;;;;4.10;2.10;;;11.60;99.90;;;;;;4935708;29;20503;-72
2022/09/16 06:04:20;;;;;;;11.90;2.67;;;11.70;99.90;;;;;;4932443;29;20439;-73
2022/09/16 06:06:50;;;;;;;5.53;2.33;;;11.70;99.90;;;;;;4932313;29;20459;-72
2022/09/16 06:09:21;;;;;;;5.80;3.07;;;11.80;99.90;;;;;;4933662;28;20517;-72
2022/09/16 06:11:51;;;;;;;4.40;2.73;;;11.80;99.90;;;;;;4929296;28;20411;-72
2022/09/16 06:14:25;;;;;;;9.70;3.23;;;11.80;99.90;;;;;;4932313;29;20468;-72
2022/09/16 06:16:54;;;;;;;4.03;2.50;;;11.80;99.90;;;;;;4932985;29;20479;-72
2022/09/16 06:19:23;;;;;;;3.17;2.00;;;11.90;99.90;;;;;;4933445;29;20423;-73
2022/09/16 06:21:53;;;;;;;8.10;2.53;;;12.00;99.90;;;;;;4933695;29;20491;-71
2022/09/16 06:24:22;;;;;;;4.57;1.83;;;12.20;99.90;;;;;;4933458;29;20566;-71
2022/09/16 06:26:50;;;;;;;5.20;1.93;;;12.30;99.90;;;;;;4935077;29;20470;-71
2022/09/16 06:29:19;;;;;;;2.90;1.83;;;12.40;1.00;;;;;;4933466;29;20469;-72
2022/09/16 06:31:47;;;;;;;6.80;3.03;;;12.50;1.00;;;;;;4930714;29;20437;-72
2022/09/16 06:34:18;;;;;;;6.40;2.20;;;12.60;1.00;;;;;;4931909;29;20442;-72
2022/09/16 06:36:47;;;;;;;4.53;2.40;;;12.70;1.00;;;;;;4931053;29;20864;-72
2022/09/16 06:39:21;;;;;;;7.43;1.77;;;12.80;1.00;;;;;;4930379;29;20458;-72
2022/09/16 06:41:50;;;;;;;5.53;2.53;;;12.90;1.00;;;;;;4933543;29;20467;-72
2022/09/16 06:44:20;;;;;;;2.90;2.10;;;12.70;1.00;;;;;;4930887;29;20476;-73
2022/09/16 06:46:48;;;;;;;5.53;1.87;;;12.80;1.00;;;;;;4929910;29;20880;-72
2022/09/16 06:49:17;;;;;;;5.17;2.30;;;12.90;99.90;;;;;;4923959;29;20459;-72
2022/09/16 06:51:46;;;;;;;4.53;2.03;;;13.00;99.90;;;;;;4933896;29;20478;-72
2022/09/16 06:54:14;;;;;;;5.87;1.80;;;13.10;99.90;;;;;;4939555;29;20907;-73
2022/09/16 06:56:44;;;;;;;2.27;1.73;;;13.10;99.90;;;;;;4938872;29;20506;-72
2022/09/16 06:59:13;;;;;;;4.40;2.20;;;13.20;99.90;;;;;;4932946;29;20460;-72
2022/09/16 07:01:41;;;;;;;5.10;2.20;;;13.40;99.90;;;;;;4929036;29;21006;-73
2022/09/16 07:04:12;;;;;;;3.67;1.87;;;13.60;99.90;;;;;;4934383;29;20489;-73
2022/09/16 07:06:40;;;;;;;2.40;1.90;;;13.60;99.90;;;;;;4932451;29;20454;-73
2022/09/16 07:09:29;;;;;;;5.80;1.90;;;13.40;99.90;;;;;;4942514;29;20441;-73
2022/09/16 07:11:59;;;;;;;11.37;1.83;;;13.30;99.90;;;;;;4931455;29;20931;-72
2022/09/16 07:14:31;;;;;;;3.90;1.60;;;13.30;99.90;;;;;;4933758;28;20481;-73
2022/09/16 07:17:00;;;;;;;3.60;2.00;;;13.30;99.90;;;;;;4928385;29;20441;-72
2022/09/16 07:19:29;;;;;;;2.70;1.80;;;13.40;99.90;;;;;;4928232;29;20756;-73
2022/09/16 07:21:58;;;;;;;2.87;1.90;;;13.60;99.90;;;;;;4954197;29;20442;-73
2022/09/16 07:24:26;;;;;;;5.73;2.03;;;13.30;99.90;;;;;;4952377;28;20431;-72
2022/09/16 07:26:55;;;;;;;5.03;2.13;;;13.20;99.90;;;;;;4958639;28;20424;-73
2022/09/16 07:29:25;;;;;;;3.43;1.80;;;13.30;99.90;;;;;;4948015;29;20952;-71
2022/09/16 07:31:55;;;;;;;2.03;1.50;;;13.40;99.90;;;;;;4942634;29;20444;-71
2022/09/16 07:34:23;;;;;;;3.50;1.40;;;13.50;99.90;;;;;;4942985;29;20450;-72
2022/09/16 07:36:52;;;;;;;4.07;1.67;;;13.80;99.90;;;;;;4944576;28;20487;-72
2022/09/16 07:39:21;;;;;;;3.20;1.40;;;14.00;99.90;;;;;;4941619;29;20474;-73
2022/09/16 07:41:49;;;;;;;2.03;1.50;;;13.80;99.90;;;;;;4938442;29;20464;-72
2022/09/16 07:44:20;;;;;;;2.67;1.10;;;13.70;99.90;;;;;;4935293;29;20486;-73
2022/09/16 07:46:50;;;;;;;5.97;2.03;;;13.80;99.90;;;;;;4940689;29;20417;-72
2022/09/16 07:49:19;;;;;;;9.13;2.60;;;13.90;99.90;;;;;;4941450;29;20662;-73
2022/09/16 07:51:48;;;;;;;6.17;1.43;;;14.00;99.90;;;;;;4935966;29;20429;-73
2022/09/16 07:54:18;;;;;;;2.40;1.30;;;14.20;99.90;;;;;;4938600;29;20985;-72
2022/09/16 07:56:47;;;;;;;5.43;1.30;;;14.40;99.90;;;;;;4935790;28;20512;-72
2022/09/16 07:59:19;;;;;;;2.40;1.33;;;14.80;99.90;;;;;;4935487;29;20505;-73
2022/09/16 08:01:50;;;;;;;3.30;1.37;;;14.90;99.90;;;;;;4936752;29;20454;-71
2022/09/16 08:04:20;;;;;;;4.33;1.10;;;15.00;99.90;;;;;;4946083;28;20472;-72
2022/09/16 08:06:49;;;;;;;4.60;1.67;;;14.90;99.90;;;;;;4946862;28;20446;-72
2022/09/16 08:09:17;;;;;;;5.90;1.43;;;14.90;98.10;;;;;;4938742;29;20455;-73
2022/09/16 08:12:06;;;;;;;4.33;1.13;;;15.10;95.50;;;;;;4943883;29;20447;-72
2022/09/16 08:14:35;;;;;;;5.97;1.17;;;15.10;92.50;;;;;;4946125;29;20743;-74
2022/09/16 08:17:06;;;;;;;8.93;1.47;;;15.10;93.80;;;;;;4935571;29;20436;-74
2022/09/16 08:19:35;;;;;;;7.80;1.93;;;15.10;93.90;;;;;;4937405;29;20432;-73
2022/09/16 08:22:03;;;;;;;1.73;1.00;;;15.10;80.10;;;;;;4940087;29;20500;-72
2022/09/16 08:24:32;;;;;;;2.60;1.23;;;15.00;78.90;;;;;;4933811;29;20456;-73
2022/09/16 08:27:01;;;;;;;6.03;1.40;;;14.70;78.10;;;;;;4933729;29;20875;-74
2022/09/16 08:29:29;;;;;;;1.93;0.90;;;14.80;83.30;;;;;;4939534;28;20437;-72
2022/09/16 08:31:58;;;;;;;2.90;1.53;;;14.80;85.10;;;;;;4929879;29;20461;-73
2022/09/16 08:34:28;;;;;;;4.43;1.60;;;15.00;83.60;;;;;;4934904;29;20567;-72
2022/09/16 08:36:57;;;;;;;7.13;1.40;;;15.30;78.70;;;;;;4938240;28;20475;-73
2022/09/16 08:39:25;;;;;;;2.70;1.23;;;15.60;57.90;;;;;;4936203;28;20932;-72
2022/09/16 08:42:16;;;;;;;2.53;1.27;;;15.70;57.40;;;;;;4938077;28;20450;-74
2022/09/16 08:44:57;;;;;;;1.50;1.03;;;15.80;52.00;;;;;;4934058;29;20542;-72
2022/09/16 08:47:40;;;;;;;3.33;1.20;;;16.20;49.30;;;;;;4929086;29;20487;-72
2022/09/16 08:50:16;;;;;;;1.60;1.03;;;16.30;36.90;;;;;;4933825;29;20479;-72
2022/09/16 08:52:46;;;;;;;2.23;1.10;;;16.20;32.90;;;;;;4939776;29;20468;-73
2022/09/16 08:55:22;;;;;;;3.67;1.30;;;15.90;28.80;;;;;;4936304;29;20483;-74
2022/09/16 08:57:56;;;;;;;5.07;1.23;;;15.60;31.60;;;;;;4932207;29;20452;-72
2022/09/16 09:00:25;;;;;;;5.90;1.53;;;15.50;33.00;;;;;;4938147;29;20417;-74
2022/09/16 09:02:56;;;;;;;5.40;1.60;;;15.70;34.40;;;;;;4935147;29;20471;-74
2022/09/16 09:05:33;;;;;;;4.00;0.93;;;15.90;30.80;;;;;;4930809;29;20663;-74
2022/09/16 09:08:33;;;;;;;1.60;1.10;;;16.00;26.80;;;;;;4930998;29;20478;-74
2022/09/16 09:11:07;;;;;;;4.77;3.17;;;15.90;21.30;;;;;;4931494;29;20539;-73
2022/09/16 09:13:48;;;;;;;12.63;1.50;;;15.80;20.80;;;;;;4934424;29;20883;-75
2022/09/16 09:16:28;;;;;;;1.33;1.13;;;15.80;19.70;;;;;;4931368;29;20414;-73
2022/09/16 09:19:08;;;;;;;2.03;0.90;;;15.80;18.00;;;;;;4932633;29;21022;-74
2022/09/16 09:21:45;;;;;;;2.70;1.30;;;15.70;17.90;;;;;;4931948;29;20422;-74
2022/09/16 09:24:30;;;;;;;8.83;1.33;;;15.80;14.70;;;;;;4930116;29;20453;-74
2022/09/16 09:27:03;;;;;;;6.40;1.10;;;15.80;13.20;;;;;;4935501;29;20445;-74
2022/09/16 09:29:56;;;;;;;1.60;0.80;;;16.00;10.00;;;;;;4930498;29;20437;-74
2022/09/16 09:32:50;;;;;;;4.47;1.20;;;16.20;10.90;;;;;;4933942;29;21011;-74
2022/09/16 09:35:33;;;;;;;2.07;1.00;;;16.40;7.80;;;;;;4934007;29;20476;-74
2022/09/16 09:38:51;;;;;;;8.63;1.47;;;16.10;2.50;;;;;;4931924;29;20528;-74
2022/09/16 09:41:26;;;;;;;4.50;1.30;;;15.50;1.00;;;;;;4866510;29;20447;-74
2022/09/16 09:44:01;;;;;;;5.57;1.70;;;15.70;1.00;;;;;;4916815;29;20613;-73
2022/09/16 09:46:33;;;;;;;4.77;2.53;;;16.00;1.00;;;;;;4930087;29;20923;-74
2022/09/16 09:49:10;;;;;;;4.03;1.10;;;16.30;1.00;;;;;;4932663;29;20455;-73
2022/09/16 09:51:44;;;;;;;4.73;1.30;;;16.50;1.00;;;;;;4934184;28;20506;-73
2022/09/16 09:54:26;;;;;;;7.77;1.07;;;16.70;1.00;;;;;;4930360;29;21136;-74
2022/09/16 09:56:59;;;;;;;5.43;1.17;;;16.80;1.00;;;;;;4925155;29;20464;-74
2022/09/16 09:59:36;;;;;;;2.77;0.80;;;16.90;1.00;;;;;;4928527;29;20883;-74
2022/09/16 10:02:14;;;;;;;2.70;1.43;;;16.70;1.00;;;;;;4930441;29;21443;-74
2022/09/16 10:04:43;;;;;;;2.73;1.33;;;16.80;1.00;;;;;;4930348;29;20486;-75
2022/09/16 10:07:14;;;;;;;2.03;0.77;;;17.10;1.00;;;;;;4931463;29;20476;-75
2022/09/16 10:09:51;;;;;;;5.93;1.37;;;17.00;1.00;;;;;;4932600;29;20427;-74
2022/09/16 10:12:31;;;;;;;4.50;1.13;;;17.20;1.00;;;;;;4935536;29;20444;-74
2022/09/16 10:15:00;;;;;;;4.60;1.00;;;17.30;1.00;;;;;;4936403;29;20551;-75
2022/09/16 10:17:31;;;;;;;4.80;1.37;;;17.10;1.00;;;;;;4935866;29;20456;-74
2022/09/16 10:20:03;;;;;;;3.93;1.30;;;16.90;1.00;;;;;;4945578;29;20463;-75
2022/09/16 10:22:33;;;;;;;3.83;1.57;;;16.60;1.00;;;;;;4927286;29;20572;-74
2022/09/16 10:25:07;;;;;;;2.00;1.07;;;16.60;1.00;;;;;;4942137;29;20495;-74
2022/09/16 10:27:38;;;;;;;4.97;1.20;;;16.60;1.00;;;;;;4933587;29;20518;-73
2022/09/16 10:30:12;;;;;;;5.27;1.70;;;16.50;1.00;;;;;;4932824;28;20448;-74
2022/09/16 10:32:48;;;;;;;6.30;1.27;;;16.40;1.00;;;;;;4928724;29;20435;-74
2022/09/16 10:35:23;;;;;;;10.23;1.13;;;16.70;1.00;;;;;;4932461;29;20528;-74
2022/09/16 10:37:54;;;;;;;6.63;1.10;;;17.00;1.00;;;;;;4938754;29;20474;-74
2022/09/16 10:40:27;;;;;;;4.30;1.30;;;17.00;1.00;;;;;;4944563;29;20453;-74
2022/09/16 10:43:01;;;;;;;6.63;1.30;;;17.00;1.00;;;;;;4962195;28;21296;-74
2022/09/16 10:45:33;;;;;;;9.03;1.27;;;16.80;1.00;;;;;;4953118;29;20580;-75
2022/09/16 10:48:06;;;;;;;3.57;0.87;;;16.60;1.00;;;;;;4958430;28;20487;-75
2022/09/16 10:50:35;;;;;;;4.00;2.23;;;16.80;1.00;;;;;;4935949;29;20949;-75
2022/09/16 10:53:22;;;;;;;3.80;1.07;;;16.90;1.00;;;;;;4937613;29;20513;-75
2022/09/16 10:55:59;;;;;;;2.90;1.00;;;17.10;1.00;;;;;;4932288;29;20526;-73
2022/09/16 10:58:28;;;;;;;6.00;1.23;;;17.20;1.00;;;;;;4929670;29;20446;-74
2022/09/16 11:01:14;;;;;;;6.20;1.10;;;17.30;1.00;;;;;;4932743;29;20505;-74
2022/09/16 11:04:10;;;;;;;2.67;1.30;;;17.50;1.00;;;;;;4926669;29;20472;-73
2022/09/16 11:06:55;;;;;;;5.53;0.80;;;17.70;1.00;;;;;;4938016;29;20483;-74
2022/09/16 11:09:33;;;;;;;3.00;0.93;;;17.30;1.00;;;;;;4933234;29;20794;-74
2022/09/16 11:12:31;;;;;;;4.00;0.93;;;16.90;1.00;;;;;;4932702;29;20444;-74
2022/09/16 11:15:10;;;;;;;6.93;1.20;;;16.80;1.00;;;;;;4932878;28;20475;-73
2022/09/16 11:17:49;;;;;;;5.33;1.33;;;16.80;1.00;;;;;;4932131;29;21086;-73
2022/09/16 11:20:42;;;;;;;5.40;1.27;;;16.90;1.00;;;;;;4931204;29;20889;-74
2022/09/16 11:23:27;;;;;;;3.97;1.30;;;16.90;1.00;;;;;;4925203;29;20940;-75
2022/09/16 11:26:00;;;;;;;2.53;1.10;;;17.00;1.00;;;;;;4925420;29;20460;-74
2022/09/16 11:29:09;;;;;;;3.37;1.47;;;17.10;1.00;;;;;;4934901;29;20497;-74
2022/09/16 11:31:49;;;;;;;2.50;1.20;;;17.40;1.00;;;;;;4927270;29;20957;-74
2022/09/16 11:34:45;;;;;;;7.23;1.13;;;17.50;1.00;;;;;;4934335;29;21018;-73
2022/09/16 11:37:22;;;;;;;6.17;1.57;;;17.30;1.00;;;;;;4933145;29;20438;-75
2022/09/16 11:40:04;;;;;;;4.40;2.87;;;17.20;1.00;;;;;;4937195;29;20452;-73
2022/09/16 11:42:39;;;;;;;3.10;1.20;;;17.40;1.00;;;;;;4938391;29;20478;-75
2022/09/16 11:45:24;;;;;;;5.63;1.03;;;17.70;1.00;;;;;;4928470;29;20480;-74
2022/09/16 11:48:13;;;;;;;5.33;1.17;;;18.10;1.00;;;;;;4930257;29;20487;-74
2022/09/16 11:50:46;;;;;;;1.97;1.13;;;18.10;1.00;;;;;;4932451;29;20503;-75
2022/09/16 11:53:31;;;;;;;1.50;0.90;;;18.10;1.00;;;;;;4934274;29;20866;-74
2022/09/16 11:56:10;;;;;;;4.10;1.10;;;18.40;1.00;;;;;;4924922;29;20503;-75
2022/09/16 11:58:45;;;;;;;2.57;0.73;;;18.70;1.00;;;;;;4931424;29;20468;-75
2022/09/16 12:01:26;;;;;;;5.20;0.70;;;18.60;1.00;;;;;;4933955;29;20443;-75
2022/09/16 12:03:59;;;;;;;6.50;1.37;;;18.70;1.00;;;;;;4930648;29;21007;-75
2022/09/16 12:06:36;;;;;;;4.10;0.93;;;18.60;1.00;;;;;;4933564;29;20436;-73
2022/09/16 12:09:10;;;;;;;2.60;0.77;;;18.50;1.00;;;;;;4934443;29;20519;-73
2022/09/16 12:11:44;;;;;;;9.67;0.97;;;18.70;1.00;;;;;;4932194;29;20748;-73
2022/09/16 12:14:17;;;;;;;4.17;0.97;;;18.90;1.00;;;;;;4933768;28;20492;-74
2022/09/16 12:16:51;;;;;;;1.97;1.00;;;18.80;1.00;;;;;;4938043;29;20448;-74
2022/09/16 12:19:23;;;;;;;6.93;2.23;;;18.60;1.00;;;;;;4933145;29;20536;-74
2022/09/16 12:21:57;;;;;;;2.10;0.83;;;18.60;1.00;;;;;;4928859;29;20947;-74
2022/09/16 12:24:36;;;;;;;4.63;0.80;;;18.90;1.00;;;;;;4935363;29;20539;-74
2022/09/16 12:27:13;;;;;;;1.87;0.70;;;19.00;1.00;;;;;;4936130;29;20521;-74
2022/09/16 12:29:49;;;;;;;1.57;0.83;;;18.70;1.00;;;;;;4933677;29;20480;-73
2022/09/16 12:32:25;;;;;;;2.83;1.03;;;18.30;1.00;;;;;;4935386;29;20483;-73
2022/09/16 12:34:59;;;;;;;3.00;1.23;;;17.90;1.00;;;;;;4935952;28;20498;-74
2022/09/16 12:37:35;;;;;;;2.20;0.50;;;17.80;1.00;;;;;;4934429;29;20495;-74
2022/09/16 12:40:04;;;;;;;7.60;1.00;;;18.10;1.00;;;;;;4934523;28;20472;-74
2022/09/16 12:43:01;;;;;;;4.20;1.37;;;18.20;1.00;;;;;;4936160;29;20467;-73
2022/09/16 12:45:54;;;;;;;4.60;1.40;;;18.50;1.00;;;;;;4932490;29;20782;-74
2022/09/16 12:48:50;;;;;;;1.80;1.00;;;18.80;1.00;;;;;;4935806;29;20415;-73
2022/09/16 12:51:33;;;;;;;6.10;1.00;;;19.10;1.00;;;;;;4936486;28;20472;-73
2022/09/16 12:54:26;;;;;;;4.27;1.00;;;19.20;1.00;;;;;;4931460;29;20988;-73
2022/09/16 12:57:12;;;;;;;3.10;0.90;;;19.10;1.00;;;;;;4938736;29;20454;-73
2022/09/16 13:00:00;;;;;;;6.40;0.90;;;19.40;1.00;;;;;;4934456;29;20818;-73
2022/09/16 13:02:36;;;;;;;3.03;0.90;;;19.20;1.00;;;;;;4926717;29;20819;-72
2022/09/16 13:05:17;;;;;;;6.30;1.77;;;18.80;1.00;;;;;;4933594;29;20534;-75
2022/09/16 13:07:51;;;;;;;3.97;1.53;;;18.70;1.00;;;;;;4934050;29;20418;-72
2022/09/16 13:10:24;;;;;;;5.83;1.13;;;18.60;1.00;;;;;;4932474;29;20488;-73
2022/09/16 13:13:21;;;;;;;3.60;1.23;;;18.40;1.00;;;;;;4931691;29;20459;-73
2022/09/16 13:15:56;;;;;;;8.17;1.40;;;18.30;1.00;;;;;;4932096;29;20498;-73
2022/09/16 13:18:38;;;;;;;4.60;1.00;;;18.30;1.00;;;;;;4931051;29;20443;-72
2022/09/16 13:21:25;;;;;;;6.13;1.53;;;18.30;1.00;;;;;;4928694;29;20423;-74
2022/09/16 13:24:06;;;;;;;3.00;0.90;;;18.30;1.00;;;;;;4934018;28;20484;-73
2022/09/16 13:26:42;;;;;;;1.87;0.70;;;18.60;1.00;;;;;;4932579;29;20450;-74
2022/09/16 13:29:42;;;;;;;3.23;0.77;;;18.30;1.00;;;;;;4948939;29;20452;-73
2022/09/16 13:32:28;;;;;;;1.53;0.63;;;18.10;1.00;;;;;;4948928;29;20419;-73